sensor_id;sensor_type;location;lat;lon;timestamp;temperature;humidity
6375;DHT22;35400;45.472;-122.822;2023-01-30T00:01:25;2.50;51.40
6375;DHT22;35400;45.472;-122.822;2023-01-30T00:03:53;2.50;51.50
6375;DHT22;35400;45.472;-122.822;2023-01-30T00:06:20;2.50;52.50
6375;DHT22;35400;45.472;-122.822;2023-01-30T00:08:47;2.40;50.80
6375;DHT22;35400;45.472;-122.822;2023-01-30T00:11:16;2.40;50.60
6375;DHT22;35400;45.472;-122.822;2023-01-30T00:13:43;2.30;50.80
6375;DHT22;35400;45.472;-122.822;2023-01-30T00:16:10;2.30;51.40
6375;DHT22;35400;45.472;-122.822;2023-01-30T00:18:38;2.20;50.80
6375;DHT22;35400;45.472;-122.822;2023-01-30T00:21:07;2.20;50.20
6375;DHT22;35400;45.472;-122.822;2023-01-30T00:23:35;2.10;49.00
6375;DHT22;35400;45.472;-122.822;2023-01-30T00:26:03;2.10;49.40
6375;DHT22;35400;45.472;-122.822;2023-01-30T00:28:30;2.00;50.10
6375;DHT22;35400;45.472;-122.822;2023-01-30T00:30:57;2.00;49.80
6375;DHT22;35400;45.472;-122.822;2023-01-30T00:33:25;1.90;50.40
6375;DHT22;35400;45.472;-122.822;2023-01-30T00:35:54;1.80;50.40
6375;DHT22;35400;45.472;-122.822;2023-01-30T00:38:22;1.80;50.20
6375;DHT22;35400;45.472;-122.822;2023-01-30T00:40:49;1.80;51.30
6375;DHT22;35400;45.472;-122.822;2023-01-30T00:43:18;1.70;51.40
6375;DHT22;35400;45.472;-122.822;2023-01-30T00:46:37;1.70;52.30
6375;DHT22;35400;45.472;-122.822;2023-01-30T00:49:15;1.70;52.20
6375;DHT22;35400;45.472;-122.822;2023-01-30T00:51:42;1.60;51.40
6375;DHT22;35400;45.472;-122.822;2023-01-30T00:54:09;1.60;51.50
6375;DHT22;35400;45.472;-122.822;2023-01-30T00:56:36;1.50;51.80
6375;DHT22;35400;45.472;-122.822;2023-01-30T00:59:03;1.50;51.70
6375;DHT22;35400;45.472;-122.822;2023-01-30T01:01:29;1.40;51.80
6375;DHT22;35400;45.472;-122.822;2023-01-30T01:03:56;1.40;51.00
6375;DHT22;35400;45.472;-122.822;2023-01-30T01:06:23;1.30;51.00
6375;DHT22;35400;45.472;-122.822;2023-01-30T01:08:50;1.30;50.50
6375;DHT22;35400;45.472;-122.822;2023-01-30T01:11:17;1.30;50.40
6375;DHT22;35400;45.472;-122.822;2023-01-30T01:13:51;1.20;51.30
6375;DHT22;35400;45.472;-122.822;2023-01-30T01:16:19;1.20;51.40
6375;DHT22;35400;45.472;-122.822;2023-01-30T01:18:46;1.20;51.50
6375;DHT22;35400;45.472;-122.822;2023-01-30T01:21:14;1.10;51.00
6375;DHT22;35400;45.472;-122.822;2023-01-30T01:23:41;1.10;51.70
6375;DHT22;35400;45.472;-122.822;2023-01-30T01:26:07;1.10;51.90
6375;DHT22;35400;45.472;-122.822;2023-01-30T01:28:35;1.00;52.00
6375;DHT22;35400;45.472;-122.822;2023-01-30T01:31:10;1.00;52.20
6375;DHT22;35400;45.472;-122.822;2023-01-30T01:33:37;0.90;51.60
6375;DHT22;35400;45.472;-122.822;2023-01-30T01:36:05;0.90;51.30
6375;DHT22;35400;45.472;-122.822;2023-01-30T01:38:32;0.90;51.70
6375;DHT22;35400;45.472;-122.822;2023-01-30T01:40:59;0.90;51.70
6375;DHT22;35400;45.472;-122.822;2023-01-30T01:43:36;0.80;51.30
6375;DHT22;35400;45.472;-122.822;2023-01-30T01:46:19;0.80;52.90
6375;DHT22;35400;45.472;-122.822;2023-01-30T01:48:51;0.80;53.10
6375;DHT22;35400;45.472;-122.822;2023-01-30T01:52:13;0.70;52.90
6375;DHT22;35400;45.472;-122.822;2023-01-30T01:55:01;0.70;52.50
6375;DHT22;35400;45.472;-122.822;2023-01-30T01:57:44;0.60;54.00
6375;DHT22;35400;45.472;-122.822;2023-01-30T02:00:17;0.60;54.40
6375;DHT22;35400;45.472;-122.822;2023-01-30T02:02:57;0.50;53.80
6375;DHT22;35400;45.472;-122.822;2023-01-30T02:05:30;0.50;53.20
6375;DHT22;35400;45.472;-122.822;2023-01-30T02:08:11;0.50;54.30
6375;DHT22;35400;45.472;-122.822;2023-01-30T02:13:25;0.40;54.20
6375;DHT22;35400;45.472;-122.822;2023-01-30T02:15:56;0.40;54.30
6375;DHT22;35400;45.472;-122.822;2023-01-30T02:18:26;0.40;54.30
6375;DHT22;35400;45.472;-122.822;2023-01-30T02:24:20;0.30;54.40
6375;DHT22;35400;45.472;-122.822;2023-01-30T02:30:39;0.20;55.00
6375;DHT22;35400;45.472;-122.822;2023-01-30T02:36:02;0.20;55.10
6375;DHT22;35400;45.472;-122.822;2023-01-30T02:38:32;0.10;55.30
6375;DHT22;35400;45.472;-122.822;2023-01-30T02:41:25;0.10;56.10
6375;DHT22;35400;45.472;-122.822;2023-01-30T02:47:07;0.00;56.00
6375;DHT22;35400;45.472;-122.822;2023-01-30T02:49:47;0.00;55.70
6375;DHT22;35400;45.472;-122.822;2023-01-30T02:52:16;0.00;56.00
6375;DHT22;35400;45.472;-122.822;2023-01-30T02:54:43;0.00;55.50
6375;DHT22;35400;45.472;-122.822;2023-01-30T02:57:21;-0.10;55.40
6375;DHT22;35400;45.472;-122.822;2023-01-30T02:59:56;0.00;55.40
6375;DHT22;35400;45.472;-122.822;2023-01-30T03:08:50;-0.10;57.50
6375;DHT22;35400;45.472;-122.822;2023-01-30T03:11:24;-0.20;56.70
6375;DHT22;35400;45.472;-122.822;2023-01-30T03:14:01;-0.20;56.90
6375;DHT22;35400;45.472;-122.822;2023-01-30T03:16:40;-0.20;56.80
6375;DHT22;35400;45.472;-122.822;2023-01-30T03:19:11;-0.30;57.70
6375;DHT22;35400;45.472;-122.822;2023-01-30T03:21:45;-0.30;57.30
6375;DHT22;35400;45.472;-122.822;2023-01-30T03:24:13;-0.30;57.80
6375;DHT22;35400;45.472;-122.822;2023-01-30T03:26:45;-0.40;58.60
6375;DHT22;35400;45.472;-122.822;2023-01-30T03:29:13;-0.40;59.20
6375;DHT22;35400;45.472;-122.822;2023-01-30T03:31:40;-0.40;60.00
6375;DHT22;35400;45.472;-122.822;2023-01-30T03:34:07;-0.50;60.40
6375;DHT22;35400;45.472;-122.822;2023-01-30T03:36:34;-0.50;60.70
6375;DHT22;35400;45.472;-122.822;2023-01-30T03:39:01;-0.60;61.00
6375;DHT22;35400;45.472;-122.822;2023-01-30T03:41:28;-0.60;61.60
6375;DHT22;35400;45.472;-122.822;2023-01-30T03:43:55;-0.70;61.60
6375;DHT22;35400;45.472;-122.822;2023-01-30T03:46:22;-0.70;62.10
6375;DHT22;35400;45.472;-122.822;2023-01-30T03:48:49;-0.70;62.40
6375;DHT22;35400;45.472;-122.822;2023-01-30T03:51:16;-0.80;62.90
6375;DHT22;35400;45.472;-122.822;2023-01-30T03:53:43;-0.80;63.50
6375;DHT22;35400;45.472;-122.822;2023-01-30T03:56:11;-0.90;63.70
6375;DHT22;35400;45.472;-122.822;2023-01-30T03:58:38;-0.90;64.10
6375;DHT22;35400;45.472;-122.822;2023-01-30T04:01:17;-1.00;64.20
6375;DHT22;35400;45.472;-122.822;2023-01-30T04:03:44;-1.00;64.30
6375;DHT22;35400;45.472;-122.822;2023-01-30T04:06:11;-1.00;64.20
6375;DHT22;35400;45.472;-122.822;2023-01-30T04:08:38;-1.10;64.70
6375;DHT22;35400;45.472;-122.822;2023-01-30T04:11:06;-1.10;64.40
6375;DHT22;35400;45.472;-122.822;2023-01-30T04:13:33;-1.10;64.10
6375;DHT22;35400;45.472;-122.822;2023-01-30T04:16:19;-1.10;63.30
6375;DHT22;35400;45.472;-122.822;2023-01-30T04:19:06;-1.20;63.30
6375;DHT22;35400;45.472;-122.822;2023-01-30T04:21:33;-1.20;63.30
6375;DHT22;35400;45.472;-122.822;2023-01-30T04:24:00;-1.20;63.10
6375;DHT22;35400;45.472;-122.822;2023-01-30T04:26:27;-1.20;63.80
6375;DHT22;35400;45.472;-122.822;2023-01-30T04:28:54;-1.20;64.10
6375;DHT22;35400;45.472;-122.822;2023-01-30T04:31:22;-1.20;64.80
6375;DHT22;35400;45.472;-122.822;2023-01-30T04:33:57;-1.30;64.80
6375;DHT22;35400;45.472;-122.822;2023-01-30T04:36:25;-1.30;64.60
6375;DHT22;35400;45.472;-122.822;2023-01-30T04:38:54;-1.30;65.50
6375;DHT22;35400;45.472;-122.822;2023-01-30T04:41:25;-1.40;66.20
6375;DHT22;35400;45.472;-122.822;2023-01-30T04:43:56;-1.40;66.70
6375;DHT22;35400;45.472;-122.822;2023-01-30T04:46:35;-1.40;66.50
6375;DHT22;35400;45.472;-122.822;2023-01-30T04:49:02;-1.40;66.90
6375;DHT22;35400;45.472;-122.822;2023-01-30T04:51:29;-1.50;67.10
6375;DHT22;35400;45.472;-122.822;2023-01-30T04:53:57;-1.50;67.60
6375;DHT22;35400;45.472;-122.822;2023-01-30T04:56:24;-1.50;68.20
6375;DHT22;35400;45.472;-122.822;2023-01-30T04:58:52;-1.60;68.40
6375;DHT22;35400;45.472;-122.822;2023-01-30T05:03:56;-1.60;69.50
6375;DHT22;35400;45.472;-122.822;2023-01-30T05:06:23;-1.70;70.20
6375;DHT22;35400;45.472;-122.822;2023-01-30T05:08:52;-1.70;70.80
6375;DHT22;35400;45.472;-122.822;2023-01-30T05:11:20;-1.80;71.10
6375;DHT22;35400;45.472;-122.822;2023-01-30T05:13:48;-1.80;72.10
6375;DHT22;35400;45.472;-122.822;2023-01-30T05:16:15;-1.80;72.40
6375;DHT22;35400;45.472;-122.822;2023-01-30T05:18:42;-1.90;72.30
6375;DHT22;35400;45.472;-122.822;2023-01-30T05:21:15;-1.90;72.30
6375;DHT22;35400;45.472;-122.822;2023-01-30T05:23:42;-1.90;72.40
6375;DHT22;35400;45.472;-122.822;2023-01-30T05:26:09;-2.00;72.70
6375;DHT22;35400;45.472;-122.822;2023-01-30T05:28:36;-2.00;73.40
6375;DHT22;35400;45.472;-122.822;2023-01-30T05:31:08;-2.10;74.10
6375;DHT22;35400;45.472;-122.822;2023-01-30T05:33:37;-2.10;74.50
6375;DHT22;35400;45.472;-122.822;2023-01-30T05:36:04;-2.10;75.10
6375;DHT22;35400;45.472;-122.822;2023-01-30T05:38:32;-2.20;75.20
6375;DHT22;35400;45.472;-122.822;2023-01-30T05:43:26;-2.20;75.40
6375;DHT22;35400;45.472;-122.822;2023-01-30T05:45:54;-2.30;75.50
6375;DHT22;35400;45.472;-122.822;2023-01-30T05:48:22;-2.30;75.40
6375;DHT22;35400;45.472;-122.822;2023-01-30T05:50:53;-2.30;75.60
6375;DHT22;35400;45.472;-122.822;2023-01-30T05:53:20;-2.30;75.60
6375;DHT22;35400;45.472;-122.822;2023-01-30T05:55:58;-2.40;75.10
6375;DHT22;35400;45.472;-122.822;2023-01-30T05:58:27;-2.40;75.10
6375;DHT22;35400;45.472;-122.822;2023-01-30T06:00:58;-2.40;75.20
6375;DHT22;35400;45.472;-122.822;2023-01-30T06:03:25;-2.40;75.30
6375;DHT22;35400;45.472;-122.822;2023-01-30T06:05:52;-2.40;75.20
6375;DHT22;35400;45.472;-122.822;2023-01-30T06:08:19;-2.40;75.50
6375;DHT22;35400;45.472;-122.822;2023-01-30T06:10:45;-2.50;75.60
6375;DHT22;35400;45.472;-122.822;2023-01-30T06:13:12;-2.50;75.90
6375;DHT22;35400;45.472;-122.822;2023-01-30T06:15:39;-2.50;76.20
6375;DHT22;35400;45.472;-122.822;2023-01-30T06:18:06;-2.50;76.60
6375;DHT22;35400;45.472;-122.822;2023-01-30T06:20:33;-2.60;76.90
6375;DHT22;35400;45.472;-122.822;2023-01-30T06:22:59;-2.60;77.70
6375;DHT22;35400;45.472;-122.822;2023-01-30T06:25:26;-2.60;78.60
6375;DHT22;35400;45.472;-122.822;2023-01-30T06:27:53;-2.60;78.60
6375;DHT22;35400;45.472;-122.822;2023-01-30T06:30:20;-2.70;78.60
6375;DHT22;35400;45.472;-122.822;2023-01-30T06:32:50;-2.70;79.40
6375;DHT22;35400;45.472;-122.822;2023-01-30T06:35:16;-2.70;80.40
6375;DHT22;35400;45.472;-122.822;2023-01-30T06:37:44;-2.70;81.20
6375;DHT22;35400;45.472;-122.822;2023-01-30T06:40:11;-2.70;81.60
6375;DHT22;35400;45.472;-122.822;2023-01-30T06:42:46;-2.70;81.70
6375;DHT22;35400;45.472;-122.822;2023-01-30T06:45:15;-2.80;82.20
6375;DHT22;35400;45.472;-122.822;2023-01-30T06:47:49;-2.80;82.40
6375;DHT22;35400;45.472;-122.822;2023-01-30T06:50:18;-2.80;82.60
6375;DHT22;35400;45.472;-122.822;2023-01-30T06:52:47;-2.80;83.00
6375;DHT22;35400;45.472;-122.822;2023-01-30T06:55:16;-2.90;83.30
6375;DHT22;35400;45.472;-122.822;2023-01-30T06:57:44;-2.90;83.80
6375;DHT22;35400;45.472;-122.822;2023-01-30T07:00:19;-2.90;83.60
6375;DHT22;35400;45.472;-122.822;2023-01-30T07:02:46;-2.90;83.10
6375;DHT22;35400;45.472;-122.822;2023-01-30T07:05:13;-3.00;83.00
6375;DHT22;35400;45.472;-122.822;2023-01-30T07:07:40;-3.00;83.30
6375;DHT22;35400;45.472;-122.822;2023-01-30T07:10:07;-3.00;82.70
6375;DHT22;35400;45.472;-122.822;2023-01-30T07:12:35;-3.00;82.70
6375;DHT22;35400;45.472;-122.822;2023-01-30T07:15:03;-3.00;82.70
6375;DHT22;35400;45.472;-122.822;2023-01-30T07:17:30;-3.10;82.30
6375;DHT22;35400;45.472;-122.822;2023-01-30T07:19:58;-3.10;82.20
6375;DHT22;35400;45.472;-122.822;2023-01-30T07:22:25;-3.10;81.70
6375;DHT22;35400;45.472;-122.822;2023-01-30T07:24:51;-3.10;81.80
6375;DHT22;35400;45.472;-122.822;2023-01-30T07:27:18;-3.10;81.80
6375;DHT22;35400;45.472;-122.822;2023-01-30T07:29:45;-3.10;81.70
6375;DHT22;35400;45.472;-122.822;2023-01-30T07:32:17;-3.20;81.10
6375;DHT22;35400;45.472;-122.822;2023-01-30T07:34:46;-3.20;81.00
6375;DHT22;35400;45.472;-122.822;2023-01-30T07:37:13;-3.20;81.10
6375;DHT22;35400;45.472;-122.822;2023-01-30T07:39:41;-3.20;79.80
6375;DHT22;35400;45.472;-122.822;2023-01-30T07:42:08;-3.20;78.80
6375;DHT22;35400;45.472;-122.822;2023-01-30T07:44:34;-3.20;79.00
6375;DHT22;35400;45.472;-122.822;2023-01-30T07:47:01;-3.20;78.60
6375;DHT22;35400;45.472;-122.822;2023-01-30T07:49:28;-3.20;77.60
6375;DHT22;35400;45.472;-122.822;2023-01-30T07:51:55;-3.10;76.80
6375;DHT22;35400;45.472;-122.822;2023-01-30T07:54:22;-3.10;76.70
6375;DHT22;35400;45.472;-122.822;2023-01-30T07:56:48;-3.10;76.30
6375;DHT22;35400;45.472;-122.822;2023-01-30T07:59:15;-3.10;73.10
6375;DHT22;35400;45.472;-122.822;2023-01-30T08:01:42;-3.00;74.10
6375;DHT22;35400;45.472;-122.822;2023-01-30T08:04:09;-3.00;73.90
6375;DHT22;35400;45.472;-122.822;2023-01-30T08:06:36;-3.00;73.30
6375;DHT22;35400;45.472;-122.822;2023-01-30T08:09:05;-3.00;73.60
6375;DHT22;35400;45.472;-122.822;2023-01-30T08:11:33;-3.00;73.90
6375;DHT22;35400;45.472;-122.822;2023-01-30T08:14:00;-2.90;74.00
6375;DHT22;35400;45.472;-122.822;2023-01-30T08:16:27;-2.90;73.90
6375;DHT22;35400;45.472;-122.822;2023-01-30T08:18:57;-3.00;72.90
6375;DHT22;35400;45.472;-122.822;2023-01-30T08:21:24;-2.90;72.80
6375;DHT22;35400;45.472;-122.822;2023-01-30T08:23:51;-2.90;73.20
6375;DHT22;35400;45.472;-122.822;2023-01-30T08:26:18;-2.90;73.50
6375;DHT22;35400;45.472;-122.822;2023-01-30T08:28:45;-3.00;73.70
6375;DHT22;35400;45.472;-122.822;2023-01-30T08:31:13;-3.00;73.10
6375;DHT22;35400;45.472;-122.822;2023-01-30T08:33:40;-3.00;72.90
6375;DHT22;35400;45.472;-122.822;2023-01-30T08:36:07;-3.00;73.80
6375;DHT22;35400;45.472;-122.822;2023-01-30T08:38:34;-3.00;73.00
6375;DHT22;35400;45.472;-122.822;2023-01-30T08:41:04;-3.00;73.30
6375;DHT22;35400;45.472;-122.822;2023-01-30T08:43:33;-3.00;73.50
6375;DHT22;35400;45.472;-122.822;2023-01-30T08:46:00;-3.10;73.90
6375;DHT22;35400;45.472;-122.822;2023-01-30T08:48:27;-3.10;74.30
6375;DHT22;35400;45.472;-122.822;2023-01-30T08:50:55;-3.10;74.80
6375;DHT22;35400;45.472;-122.822;2023-01-30T08:53:22;-3.20;75.00
6375;DHT22;35400;45.472;-122.822;2023-01-30T08:55:52;-3.20;75.40
6375;DHT22;35400;45.472;-122.822;2023-01-30T08:58:20;-3.20;76.30
6375;DHT22;35400;45.472;-122.822;2023-01-30T09:00:47;-3.20;77.40
6375;DHT22;35400;45.472;-122.822;2023-01-30T09:03:16;-3.20;78.10
6375;DHT22;35400;45.472;-122.822;2023-01-30T09:05:43;-3.30;78.50
6375;DHT22;35400;45.472;-122.822;2023-01-30T09:08:10;-3.30;76.90
6375;DHT22;35400;45.472;-122.822;2023-01-30T09:10:37;-3.30;77.60
6375;DHT22;35400;45.472;-122.822;2023-01-30T09:13:04;-3.30;78.30
6375;DHT22;35400;45.472;-122.822;2023-01-30T09:15:32;-3.30;78.30
6375;DHT22;35400;45.472;-122.822;2023-01-30T09:17:58;-3.30;78.60
6375;DHT22;35400;45.472;-122.822;2023-01-30T09:20:25;-3.30;79.60
6375;DHT22;35400;45.472;-122.822;2023-01-30T09:22:52;-3.30;79.10
6375;DHT22;35400;45.472;-122.822;2023-01-30T09:25:19;-3.30;79.30
6375;DHT22;35400;45.472;-122.822;2023-01-30T09:27:50;-3.30;79.50
6375;DHT22;35400;45.472;-122.822;2023-01-30T09:30:17;-3.20;79.70
6375;DHT22;35400;45.472;-122.822;2023-01-30T09:32:44;-3.20;80.00
6375;DHT22;35400;45.472;-122.822;2023-01-30T09:35:11;-3.20;80.30
6375;DHT22;35400;45.472;-122.822;2023-01-30T09:37:45;-3.20;80.40
6375;DHT22;35400;45.472;-122.822;2023-01-30T09:40:17;-3.20;80.50
6375;DHT22;35400;45.472;-122.822;2023-01-30T09:51:44;-3.20;81.30
6375;DHT22;35400;45.472;-122.822;2023-01-30T09:54:17;-3.20;81.40
6375;DHT22;35400;45.472;-122.822;2023-01-30T09:57:23;-3.20;81.60
6375;DHT22;35400;45.472;-122.822;2023-01-30T10:00:27;-3.20;82.00
6375;DHT22;35400;45.472;-122.822;2023-01-30T10:05:53;-3.30;82.80
6375;DHT22;35400;45.472;-122.822;2023-01-30T10:22:21;-3.50;85.90
6375;DHT22;35400;45.472;-122.822;2023-01-30T10:28:00;-3.60;86.10
6375;DHT22;35400;45.472;-122.822;2023-01-30T10:30:28;-3.60;86.50
6375;DHT22;35400;45.472;-122.822;2023-01-30T10:33:05;-3.70;86.30
6375;DHT22;35400;45.472;-122.822;2023-01-30T10:35:37;-3.70;86.40
6375;DHT22;35400;45.472;-122.822;2023-01-30T10:38:31;-3.80;86.90
6375;DHT22;35400;45.472;-122.822;2023-01-30T10:41:11;-3.90;87.20
6375;DHT22;35400;45.472;-122.822;2023-01-30T10:43:44;-3.90;87.60
6375;DHT22;35400;45.472;-122.822;2023-01-30T10:49:04;-4.00;88.50
6375;DHT22;35400;45.472;-122.822;2023-01-30T10:54:31;-4.10;89.20
6375;DHT22;35400;45.472;-122.822;2023-01-30T11:05:19;-4.20;90.30
6375;DHT22;35400;45.472;-122.822;2023-01-30T11:07:47;-4.30;90.50
6375;DHT22;35400;45.472;-122.822;2023-01-30T11:10:23;-4.30;90.70
6375;DHT22;35400;45.472;-122.822;2023-01-30T11:13:06;-4.30;90.90
6375;DHT22;35400;45.472;-122.822;2023-01-30T11:15:44;-4.30;91.00
6375;DHT22;35400;45.472;-122.822;2023-01-30T11:18:13;-4.40;91.10
6375;DHT22;35400;45.472;-122.822;2023-01-30T11:20:42;-4.40;91.30
6375;DHT22;35400;45.472;-122.822;2023-01-30T11:23:31;-4.50;91.50
6375;DHT22;35400;45.472;-122.822;2023-01-30T11:26:01;-4.50;91.60
6375;DHT22;35400;45.472;-122.822;2023-01-30T11:28:35;-4.50;91.60
6375;DHT22;35400;45.472;-122.822;2023-01-30T11:31:04;-4.60;91.70
6375;DHT22;35400;45.472;-122.822;2023-01-30T11:33:35;-4.60;92.00
6375;DHT22;35400;45.472;-122.822;2023-01-30T11:36:04;-4.60;92.30
6375;DHT22;35400;45.472;-122.822;2023-01-30T11:38:34;-4.60;92.40
6375;DHT22;35400;45.472;-122.822;2023-01-30T11:41:22;-4.60;92.50
6375;DHT22;35400;45.472;-122.822;2023-01-30T11:43:49;-4.70;92.50
6375;DHT22;35400;45.472;-122.822;2023-01-30T11:46:20;-4.70;92.60
6375;DHT22;35400;45.472;-122.822;2023-01-30T11:48:53;-4.70;92.60
6375;DHT22;35400;45.472;-122.822;2023-01-30T11:51:24;-4.70;92.80
6375;DHT22;35400;45.472;-122.822;2023-01-30T11:53:58;-4.70;92.90
6375;DHT22;35400;45.472;-122.822;2023-01-30T11:56:39;-4.80;92.90
6375;DHT22;35400;45.472;-122.822;2023-01-30T12:02:03;-4.80;93.00
6375;DHT22;35400;45.472;-122.822;2023-01-30T12:04:31;-4.80;93.00
6375;DHT22;35400;45.472;-122.822;2023-01-30T12:07:23;-4.80;93.00
6375;DHT22;35400;45.472;-122.822;2023-01-30T12:09:51;-4.90;93.00
6375;DHT22;35400;45.472;-122.822;2023-01-30T12:20:39;-4.90;93.20
6375;DHT22;35400;45.472;-122.822;2023-01-30T12:23:11;-4.90;93.30
6375;DHT22;35400;45.472;-122.822;2023-01-30T12:26:03;-4.90;93.50
6375;DHT22;35400;45.472;-122.822;2023-01-30T12:28:48;-4.90;93.50
6375;DHT22;35400;45.472;-122.822;2023-01-30T12:31:34;-4.90;93.50
6375;DHT22;35400;45.472;-122.822;2023-01-30T12:34:03;-4.90;93.50
6375;DHT22;35400;45.472;-122.822;2023-01-30T12:37:16;-4.90;93.50
6375;DHT22;35400;45.472;-122.822;2023-01-30T12:40:02;-4.90;93.50
6375;DHT22;35400;45.472;-122.822;2023-01-30T12:49:18;-4.90;93.50
6375;DHT22;35400;45.472;-122.822;2023-01-30T12:52:14;-4.80;93.50
6375;DHT22;35400;45.472;-122.822;2023-01-30T13:03:25;-4.80;93.90
6375;DHT22;35400;45.472;-122.822;2023-01-30T13:22:54;-4.90;95.00
6375;DHT22;35400;45.472;-122.822;2023-01-30T13:28:33;-5.00;95.30
6375;DHT22;35400;45.472;-122.822;2023-01-30T13:31:05;-5.00;95.40
6375;DHT22;35400;45.472;-122.822;2023-01-30T13:33:40;-5.00;95.50
6375;DHT22;35400;45.472;-122.822;2023-01-30T13:39:52;-5.10;95.60
6375;DHT22;35400;45.472;-122.822;2023-01-30T13:42:35;-5.20;95.60
6375;DHT22;35400;45.472;-122.822;2023-01-30T13:45:04;-5.20;95.80
6375;DHT22;35400;45.472;-122.822;2023-01-30T13:47:45;-5.20;95.80
6375;DHT22;35400;45.472;-122.822;2023-01-30T13:58:38;-5.30;96.60
6375;DHT22;35400;45.472;-122.822;2023-01-30T14:01:13;-5.30;96.90
6375;DHT22;35400;45.472;-122.822;2023-01-30T14:03:41;-5.30;97.10
6375;DHT22;35400;45.472;-122.822;2023-01-30T14:06:24;-5.30;97.40
6375;DHT22;35400;45.472;-122.822;2023-01-30T14:08:55;-5.40;97.60
6375;DHT22;35400;45.472;-122.822;2023-01-30T14:11:41;-5.40;97.80
6375;DHT22;35400;45.472;-122.822;2023-01-30T14:16:51;-5.40;98.10
6375;DHT22;35400;45.472;-122.822;2023-01-30T14:19:39;-5.40;98.10
6375;DHT22;35400;45.472;-122.822;2023-01-30T14:23:04;-5.50;98.30
6375;DHT22;35400;45.472;-122.822;2023-01-30T14:27:52;-5.50;98.90
6375;DHT22;35400;45.472;-122.822;2023-01-30T14:30:37;-5.60;99.20
6375;DHT22;35400;45.472;-122.822;2023-01-30T14:38:19;-5.60;99.90
6375;DHT22;35400;45.472;-122.822;2023-01-30T14:49:01;-5.70;99.90
6375;DHT22;35400;45.472;-122.822;2023-01-30T15:05:10;-5.70;99.90
6375;DHT22;35400;45.472;-122.822;2023-01-30T15:07:48;-5.80;99.90
6375;DHT22;35400;45.472;-122.822;2023-01-30T15:19:06;-5.80;99.90
6375;DHT22;35400;45.472;-122.822;2023-01-30T15:21:51;-5.80;99.90
6375;DHT22;35400;45.472;-122.822;2023-01-30T15:32:46;-5.80;99.90
6375;DHT22;35400;45.472;-122.822;2023-01-30T15:37:52;-5.80;99.90
6375;DHT22;35400;45.472;-122.822;2023-01-30T15:40:25;-5.80;99.90
6375;DHT22;35400;45.472;-122.822;2023-01-30T15:51:23;-5.90;99.90
6375;DHT22;35400;45.472;-122.822;2023-01-30T15:53:54;-5.90;99.90
6375;DHT22;35400;45.472;-122.822;2023-01-30T15:56:28;-5.80;99.90
6375;DHT22;35400;45.472;-122.822;2023-01-30T15:58:58;-5.90;99.90
6375;DHT22;35400;45.472;-122.822;2023-01-30T16:01:25;-5.80;99.90
6375;DHT22;35400;45.472;-122.822;2023-01-30T16:03:53;-5.80;99.90
6375;DHT22;35400;45.472;-122.822;2023-01-30T16:06:34;-5.80;99.90
6375;DHT22;35400;45.472;-122.822;2023-01-30T16:09:14;-5.80;99.90
6375;DHT22;35400;45.472;-122.822;2023-01-30T16:11:43;-5.80;99.90
6375;DHT22;35400;45.472;-122.822;2023-01-30T16:14:12;-5.70;99.90
6375;DHT22;35400;45.472;-122.822;2023-01-30T16:16:50;-5.70;99.90
6375;DHT22;35400;45.472;-122.822;2023-01-30T16:19:25;-5.60;99.90
6375;DHT22;35400;45.472;-122.822;2023-01-30T16:22:10;-5.60;99.90
6375;DHT22;35400;45.472;-122.822;2023-01-30T16:24:43;-5.50;99.90
6375;DHT22;35400;45.472;-122.822;2023-01-30T16:29:51;-5.40;99.90
6375;DHT22;35400;45.472;-122.822;2023-01-30T16:32:26;-5.30;99.90
6375;DHT22;35400;45.472;-122.822;2023-01-30T16:37:53;-5.10;99.90
6375;DHT22;35400;45.472;-122.822;2023-01-30T16:40:28;-5.00;99.90
6375;DHT22;35400;45.472;-122.822;2023-01-30T16:43:01;-4.90;99.90
6375;DHT22;35400;45.472;-122.822;2023-01-30T16:53:29;-4.40;99.90
6375;DHT22;35400;45.472;-122.822;2023-01-30T16:56:00;-4.20;99.90
6375;DHT22;35400;45.472;-122.822;2023-01-30T16:58:30;-4.10;99.90
6375;DHT22;35400;45.472;-122.822;2023-01-30T17:01:02;-4.00;99.90
6375;DHT22;35400;45.472;-122.822;2023-01-30T17:03:43;-3.80;99.90
6375;DHT22;35400;45.472;-122.822;2023-01-30T17:06:37;-3.70;99.90
6375;DHT22;35400;45.472;-122.822;2023-01-30T17:09:30;-3.60;99.90
6375;DHT22;35400;45.472;-122.822;2023-01-30T17:11:53;-3.50;99.90
6375;DHT22;35400;45.472;-122.822;2023-01-30T17:14:26;-3.30;99.90
6375;DHT22;35400;45.472;-122.822;2023-01-30T17:17:02;-3.20;99.90
6375;DHT22;35400;45.472;-122.822;2023-01-30T17:19:29;-3.10;99.90
6375;DHT22;35400;45.472;-122.822;2023-01-30T17:21:58;-3.00;99.90
6375;DHT22;35400;45.472;-122.822;2023-01-30T17:24:25;-2.90;99.90
6375;DHT22;35400;45.472;-122.822;2023-01-30T17:26:58;-2.80;99.80
6375;DHT22;35400;45.472;-122.822;2023-01-30T17:29:26;-2.70;99.90
6375;DHT22;35400;45.472;-122.822;2023-01-30T17:31:52;-2.60;99.90
6375;DHT22;35400;45.472;-122.822;2023-01-30T17:34:20;-2.50;99.90
6375;DHT22;35400;45.472;-122.822;2023-01-30T17:36:51;-2.40;98.90
6375;DHT22;35400;45.472;-122.822;2023-01-30T17:39:21;-2.30;99.20
6375;DHT22;35400;45.472;-122.822;2023-01-30T17:41:48;-2.30;99.40
6375;DHT22;35400;45.472;-122.822;2023-01-30T17:44:15;-2.20;99.50
6375;DHT22;35400;45.472;-122.822;2023-01-30T17:46:44;-2.10;97.10
6375;DHT22;35400;45.472;-122.822;2023-01-30T17:49:23;-2.00;96.10
6375;DHT22;35400;45.472;-122.822;2023-01-30T17:51:50;-1.90;96.30
6375;DHT22;35400;45.472;-122.822;2023-01-30T17:54:18;-1.80;95.40
6375;DHT22;35400;45.472;-122.822;2023-01-30T17:57:04;-1.80;95.80
6375;DHT22;35400;45.472;-122.822;2023-01-30T17:59:31;-1.70;95.90
6375;DHT22;35400;45.472;-122.822;2023-01-30T18:01:59;-1.60;94.80
6375;DHT22;35400;45.472;-122.822;2023-01-30T18:04:26;-1.60;95.20
6375;DHT22;35400;45.472;-122.822;2023-01-30T18:06:55;-1.50;95.50
6375;DHT22;35400;45.472;-122.822;2023-01-30T18:09:27;-1.40;95.40
6375;DHT22;35400;45.472;-122.822;2023-01-30T18:11:55;-1.30;95.50
6375;DHT22;35400;45.472;-122.822;2023-01-30T18:14:22;-1.20;94.90
6375;DHT22;35400;45.472;-122.822;2023-01-30T18:16:48;-1.20;92.70
6375;DHT22;35400;45.472;-122.822;2023-01-30T18:19:16;-1.10;92.70
6375;DHT22;35400;45.472;-122.822;2023-01-30T18:21:43;-1.00;93.30
6375;DHT22;35400;45.472;-122.822;2023-01-30T18:24:12;-0.90;93.00
6375;DHT22;35400;45.472;-122.822;2023-01-30T18:26:39;-0.80;93.10
6375;DHT22;35400;45.472;-122.822;2023-01-30T18:29:06;-0.80;93.30
6375;DHT22;35400;45.472;-122.822;2023-01-30T18:31:35;-0.60;93.90
6375;DHT22;35400;45.472;-122.822;2023-01-30T18:34:02;-0.50;93.80
6375;DHT22;35400;45.472;-122.822;2023-01-30T18:36:32;-0.40;93.70
6375;DHT22;35400;45.472;-122.822;2023-01-30T18:39:00;-0.30;93.20
6375;DHT22;35400;45.472;-122.822;2023-01-30T18:41:28;-0.20;93.10
6375;DHT22;35400;45.472;-122.822;2023-01-30T18:43:57;-0.10;93.50
6375;DHT22;35400;45.472;-122.822;2023-01-30T18:46:25;0.00;93.60
6375;DHT22;35400;45.472;-122.822;2023-01-30T18:48:53;0.10;92.00
6375;DHT22;35400;45.472;-122.822;2023-01-30T18:51:22;0.20;92.20
6375;DHT22;35400;45.472;-122.822;2023-01-30T18:53:50;0.40;92.10